Time;durP1;ratioP1;P1;durP2;ratioP2;P2;SDS_P1;SDS_P2;PMS_P1;PMS_P2;Temp;Humidity;BMP_temperature;BMP_pressure;BME280_temperature;BME280_humidity;BME280_pressure;Samples;Min_cycle;Max_cycle;Signal;HPM_P1;HPM_P2
2022/01/17 00:01:14;;;;;;;28.38;3.28;;;;;;;4.12;100.00;102039.00;4986180;28;20030;-78
2022/01/17 00:03:40;;;;;;;35.95;4.13;;;;;;;4.05;100.00;102028.06;4953448;28;20086;-78
2022/01/17 00:06:06;;;;;;;27.85;3.30;;;;;;;4.12;100.00;102013.88;4981170;28;20078;-78
2022/01/17 00:08:33;;;;;;;31.17;3.70;;;;;;;4.14;100.00;102003.44;4987209;28;20035;-79
2022/01/17 00:11:00;;;;;;;28.83;3.22;;;;;;;4.09;100.00;101993.28;4988233;28;20041;-78
2022/01/17 00:13:28;;;;;;;31.67;3.55;;;;;;;4.12;100.00;101998.31;5005578;28;20069;-79
2022/01/17 00:16:04;;;;;;;20.33;3.47;;;;;;;4.01;100.00;102019.59;4967266;28;20092;-79
2022/01/17 00:19:03;;;;;;;25.17;2.97;;;;;;;4.09;100.00;102006.25;4988129;28;20038;-79
2022/01/17 00:21:17;;;;;;;33.90;3.72;;;;;;;4.24;100.00;102004.69;4986073;28;20023;-79
2022/01/17 00:23:43;;;;;;;19.42;2.90;;;;;;;4.20;100.00;101992.72;4966660;28;20038;-79
2022/01/17 00:26:08;;;;;;;21.80;3.13;;;;;;;4.17;100.00;101985.13;5001967;28;20042;-79
2022/01/17 00:28:34;;;;;;;35.75;3.03;;;;;;;4.22;100.00;101990.91;4990575;28;20061;-78
2022/01/17 00:31:04;;;;;;;34.00;3.25;;;;;;;4.31;100.00;101979.22;4959977;28;20031;-79
2022/01/17 00:33:33;;;;;;;30.25;4.03;;;;;;;4.28;100.00;101977.63;4981181;28;20442;-79
2022/01/17 00:35:59;;;;;;;24.70;2.92;;;;;;;4.24;100.00;101976.94;4984687;28;20037;-80
2022/01/17 00:38:25;;;;;;;27.48;2.97;;;;;;;4.35;100.00;101962.56;4992893;28;20036;-79
2022/01/17 00:40:50;;;;;;;23.80;3.30;;;;;;;4.34;100.00;101972.13;4972715;28;20092;-81
2022/01/17 00:43:16;;;;;;;29.65;3.08;;;;;;;4.36;100.00;101983.28;4975949;28;20046;-80
2022/01/17 00:45:43;;;;;;;25.00;2.70;;;;;;;4.27;100.00;101986.31;4986116;28;20030;-80
2022/01/17 00:48:09;;;;;;;25.35;2.58;;;;;;;4.37;100.00;101961.59;4976253;28;20034;-81
2022/01/17 00:50:37;;;;;;;28.35;3.42;;;;;;;4.42;100.00;101963.94;4972129;28;20920;-79
2022/01/17 00:53:05;;;;;;;20.17;2.67;;;;;;;4.45;100.00;101954.25;4976114;28;20365;-79
2022/01/17 00:55:31;;;;;;;25.90;2.78;;;;;;;4.45;100.00;101974.19;4977283;28;20121;-79
2022/01/17 00:57:58;;;;;;;23.00;2.70;;;;;;;4.47;100.00;101972.38;4976210;28;20034;-78
2022/01/17 01:00:24;;;;;;;22.50;3.05;;;;;;;4.49;100.00;101994.75;5004996;28;20026;-77
2022/01/17 01:02:49;;;;;;;20.00;2.70;;;;;;;4.51;100.00;101981.69;4976100;28;20080;-77
2022/01/17 01:05:16;;;;;;;30.58;3.67;;;;;;;4.56;100.00;101995.28;4975439;28;20026;-78
2022/01/17 01:07:42;;;;;;;23.00;2.50;;;;;;;4.58;100.00;102001.25;4987793;28;20034;-78
2022/01/17 01:10:10;;;;;;;24.65;3.08;;;;;;;4.56;100.00;101982.31;4969977;28;20038;-78
2022/01/17 01:12:45;;;;;;;24.08;3.75;;;;;;;4.58;100.00;101997.81;4972861;28;20057;-79
2022/01/17 01:15:18;;;;;;;20.55;2.83;;;;;;;4.64;100.00;101980.16;4982027;28;20034;-79
2022/01/17 01:17:50;;;;;;;28.25;3.60;;;;;;;4.58;100.00;102001.25;4988684;28;20034;-78
2022/01/17 01:28:13;;;;;;;28.27;3.22;;;;;;;4.60;100.00;102006.38;4987303;28;20069;-79
2022/01/17 01:30:43;;;;;;;26.63;3.47;;;;;;;4.67;100.00;102003.41;5006725;28;20735;-79
2022/01/17 01:33:09;;;;;;;21.92;2.67;;;;;;;4.59;100.00;102002.09;4987293;28;20027;-79
2022/01/17 01:35:43;;;;;;;30.77;3.58;;;;;;;4.66;100.00;101986.09;4975966;28;20137;-78
2022/01/17 01:38:09;;;;;;;21.38;3.35;;;;;;;4.77;100.00;101975.16;4996512;28;20076;-78
2022/01/17 01:40:35;;;;;;;19.67;2.83;;;;;;;4.74;100.00;101959.72;4967907;28;20150;-79
2022/01/17 01:43:01;;;;;;;26.88;3.35;;;;;;;4.70;100.00;101989.38;4975050;28;20480;-78
2022/01/17 01:45:27;;;;;;;26.20;2.60;;;;;;;4.75;100.00;101976.19;4987518;28;20034;-77
2022/01/17 01:47:53;;;;;;;26.33;3.20;;;;;;;4.78;100.00;101970.81;4974882;28;20030;-78
2022/01/17 01:50:19;;;;;;;25.58;4.57;;;;;;;4.82;100.00;101964.53;4972418;28;20034;-78
2022/01/17 01:52:45;;;;;;;24.73;3.47;;;;;;;4.84;100.00;101953.16;4968501;28;20106;-79
2022/01/17 01:55:14;;;;;;;28.95;3.45;;;;;;;4.85;100.00;101956.56;4952282;28;20436;-78
2022/01/17 01:57:42;;;;;;;29.17;3.67;;;;;;;4.69;100.00;101966.94;4968149;28;20114;-79
2022/01/17 02:00:10;;;;;;;19.67;2.95;;;;;;;4.62;100.00;101962.97;4971054;28;20505;-80
2022/01/17 02:02:36;;;;;;;31.55;3.95;;;;;;;4.59;100.00;101947.50;4990735;28;20037;-78
2022/01/17 02:05:03;;;;;;;31.52;3.50;;;;;;;4.67;100.00;101966.16;4990110;28;20026;-80
2022/01/17 02:07:28;;;;;;;21.65;3.55;;;;;;;4.74;100.00;101959.72;5003967;28;20382;-79
2022/01/17 02:09:54;;;;;;;33.88;4.03;;;;;;;4.80;100.00;101968.97;4988266;28;20065;-79
2022/01/17 02:12:21;;;;;;;23.00;3.63;;;;;;;4.80;100.00;101963.75;4986874;28;20081;-77
2022/01/17 02:14:50;;;;;;;28.15;3.65;;;;;;;4.78;100.00;101966.44;4972412;28;20180;-78
2022/01/17 02:17:16;;;;;;;39.28;3.58;;;;;;;4.79;100.00;101960.34;4969667;28;20613;-78
2022/01/17 02:23:23;;;;;;;37.42;3.67;;;;;;;4.81;100.00;101968.88;4994050;28;20890;-78
2022/01/17 02:25:49;;;;;;;31.10;3.28;;;;;;;4.78;100.00;101979.44;4982090;28;20034;-76
2022/01/17 02:28:15;;;;;;;34.28;3.38;;;;;;;4.81;100.00;101963.69;4989838;28;20034;-77
2022/01/17 02:30:41;;;;;;;28.73;3.10;;;;;;;4.94;100.00;101958.69;5000742;28;20045;-78
2022/01/17 02:33:07;;;;;;;25.85;3.50;;;;;;;4.87;100.00;101962.53;4970556;28;20065;-78
2022/01/17 02:35:32;;;;;;;35.28;3.25;;;;;;;4.84;100.00;101950.53;4969535;28;20073;-78
2022/01/17 02:37:58;;;;;;;22.38;3.45;;;;;;;4.83;100.00;101942.81;4987538;28;20038;-78
2022/01/17 02:40:25;;;;;;;30.88;3.67;;;;;;;4.92;100.00;101959.72;4999945;28;20045;-78
2022/01/17 02:42:59;;;;;;;21.70;3.75;;;;;;;4.95;100.00;101952.56;4966882;28;20037;-78
2022/01/17 02:45:34;;;;;;;39.40;3.80;;;;;;;4.91;100.00;101922.44;4980776;28;20033;-78
2022/01/17 02:48:09;;;;;;;31.15;3.58;;;;;;;4.88;100.00;101933.84;5002987;28;20027;-79
2022/01/17 02:50:36;;;;;;;24.42;2.67;;;;;;;4.93;100.00;101919.78;4986127;28;20034;-78
2022/01/17 02:53:05;;;;;;;29.85;2.83;;;;;;;4.98;100.00;101925.56;4983398;28;20041;-78
2022/01/17 02:55:31;;;;;;;24.38;3.42;;;;;;;4.85;100.00;101918.41;4978510;28;20033;-78
2022/01/17 02:57:57;;;;;;;25.15;3.20;;;;;;;4.91;100.00;101927.66;4994796;28;20485;-78
2022/01/17 03:00:23;;;;;;;26.80;3.75;;;;;;;4.91;100.00;101914.66;4988847;28;20512;-78
2022/01/17 03:02:49;;;;;;;27.55;3.58;;;;;;;4.94;100.00;101917.09;4986954;28;20030;-78
2022/01/17 03:05:19;;;;;;;24.80;3.33;;;;;;;4.99;100.00;101912.50;4985009;28;20034;-78
2022/01/17 03:07:46;;;;;;;25.20;3.40;;;;;;;5.00;100.00;101877.75;4997278;28;20037;-78
2022/01/17 03:10:37;;;;;;;24.30;3.22;;;;;;;5.05;100.00;101913.94;5002372;28;20030;-78
2022/01/17 03:13:18;;;;;;;22.73;4.45;;;;;;;5.10;100.00;101909.31;4989381;28;20030;-79
2022/01/17 03:15:46;;;;;;;30.15;3.42;;;;;;;5.13;100.00;101896.16;4969865;28;20038;-77
2022/01/17 03:18:12;;;;;;;25.27;3.38;;;;;;;5.04;100.00;101878.44;4999901;28;20045;-78
2022/01/17 03:20:38;;;;;;;24.25;3.53;;;;;;;5.11;100.00;101878.97;4986217;28;20038;-79
2022/01/17 03:23:05;;;;;;;29.88;3.45;;;;;;;5.10;100.00;101888.50;4981261;28;20039;-78
2022/01/17 03:25:31;;;;;;;30.63;3.53;;;;;;;5.13;100.00;101900.50;4956114;28;20100;-79
2022/01/17 03:27:57;;;;;;;31.38;3.63;;;;;;;5.12;100.00;101897.06;4984118;28;20498;-77
2022/01/17 03:30:23;;;;;;;31.63;3.45;;;;;;;5.16;100.00;101895.13;4981513;28;20558;-77
2022/01/17 03:32:49;;;;;;;25.95;2.90;;;;;;;5.15;100.00;101883.91;4985350;28;20030;-77
2022/01/17 03:35:15;;;;;;;34.45;3.60;;;;;;;5.14;100.00;101877.03;4969468;28;20056;-78
2022/01/17 03:37:41;;;;;;;30.00;3.45;;;;;;;5.16;100.00;101882.13;4969251;28;20049;-78
2022/01/17 03:40:08;;;;;;;29.85;3.17;;;;;;;5.11;100.00;101904.97;4969958;28;20046;-77
2022/01/17 03:42:35;;;;;;;20.75;3.20;;;;;;;5.16;100.00;101884.72;4976981;28;20073;-78
2022/01/17 03:45:03;;;;;;;28.98;3.80;;;;;;;5.17;100.00;101904.63;4984720;28;20161;-78
2022/01/17 03:47:29;;;;;;;25.52;3.20;;;;;;;5.14;100.00;101891.78;5003565;28;20034;-79
2022/01/17 03:49:55;;;;;;;30.20;3.45;;;;;;;5.23;100.00;101880.88;4995043;28;20046;-79
2022/01/17 03:52:21;;;;;;;25.02;3.75;;;;;;;5.24;100.00;101875.59;4974911;28;20514;-77
2022/01/17 03:54:46;;;;;;;24.92;3.28;;;;;;;5.23;100.00;101894.72;4989188;28;20037;-78
2022/01/17 03:57:12;;;;;;;30.40;3.00;;;;;;;5.29;100.00;101880.53;5001806;28;20038;-77
2022/01/17 03:59:37;;;;;;;23.55;3.35;;;;;;;5.29;100.00;101883.13;4971018;28;20054;-78
2022/01/17 04:02:03;;;;;;;27.30;2.90;;;;;;;5.18;100.00;101883.75;4984361;28;20043;-78
2022/01/17 04:04:29;;;;;;;16.65;2.95;;;;;;;5.20;100.00;101881.06;4974731;28;20034;-77
2022/01/17 04:06:54;;;;;;;21.65;2.90;;;;;;;5.15;100.00;101889.09;4987554;28;20529;-80
2022/01/17 04:09:20;;;;;;;19.75;2.40;;;;;;;5.11;100.00;101882.38;5001529;28;20030;-78
2022/01/17 04:11:45;;;;;;;24.33;3.00;;;;;;;5.09;100.00;101883.41;4991179;28;20039;-79
2022/01/17 04:14:11;;;;;;;28.83;3.85;;;;;;;5.15;100.00;101886.50;4989624;28;20458;-77
2022/01/17 04:16:37;;;;;;;21.33;3.78;;;;;;;5.11;100.00;101878.97;4980266;28;20062;-78
2022/01/17 04:19:04;;;;;;;23.30;3.83;;;;;;;5.04;100.00;101881.88;4976773;28;20197;-79
2022/01/17 04:21:33;;;;;;;27.70;3.17;;;;;;;5.14;100.00;101873.56;4978084;28;20044;-78
2022/01/17 04:23:59;;;;;;;22.90;2.95;;;;;;;5.25;100.00;101884.22;4992593;28;20034;-78
2022/01/17 04:26:25;;;;;;;21.38;2.70;;;;;;;5.24;100.00;101882.56;5008364;28;20133;-78
2022/01/17 04:28:54;;;;;;;22.65;3.97;;;;;;;5.24;100.00;101883.41;4995314;28;20512;-78
2022/01/17 04:31:20;;;;;;;17.67;3.30;;;;;;;5.26;100.00;101855.53;4976074;28;20651;-78
2022/01/17 04:33:46;;;;;;;29.60;3.10;;;;;;;5.24;100.00;101896.41;4992623;28;20065;-77
2022/01/17 04:36:12;;;;;;;18.05;2.95;;;;;;;5.23;100.00;101886.91;4971708;28;20030;-78
2022/01/17 04:38:38;;;;;;;21.35;3.17;;;;;;;5.20;100.00;101899.25;4974129;28;20045;-78
2022/01/17 04:41:12;;;;;;;25.17;3.00;;;;;;;5.22;100.00;101906.06;4974819;28;20045;-77
2022/01/17 04:46:05;;;;;;;24.67;2.85;;;;;;;5.33;100.00;101881.19;4985009;28;20042;-78
2022/01/17 04:48:31;;;;;;;15.88;2.65;;;;;;;5.36;100.00;101886.25;4993193;28;20034;-77
2022/01/17 04:50:58;;;;;;;32.58;3.85;;;;;;;5.29;100.00;101880.53;4989851;28;20070;-78
2022/01/17 04:53:25;;;;;;;25.92;3.53;;;;;;;5.28;100.00;101891.03;4960589;28;20077;-78
2022/01/17 04:55:51;;;;;;;23.15;3.03;;;;;;;5.29;100.00;101879.69;4975112;28;20048;-77
2022/01/17 04:58:16;;;;;;;32.22;3.08;;;;;;;5.36;100.00;101874.06;5004281;28;20457;-77
2022/01/17 05:00:48;;;;;;;30.27;3.60;;;;;;;5.36;100.00;101892.28;4991536;28;20711;-78
2022/01/17 05:03:20;;;;;;;29.38;4.03;;;;;;;5.37;100.00;101867.09;4991682;28;20069;-78
2022/01/17 05:05:47;;;;;;;25.55;3.67;;;;;;;5.30;100.00;101865.78;4989711;28;20046;-76
2022/01/17 05:08:13;;;;;;;24.15;3.45;;;;;;;5.24;100.00;101859.97;4990299;28;20564;-78
2022/01/17 05:10:38;;;;;;;37.78;4.13;;;;;;;5.27;100.00;101877.16;4987195;28;20046;-78
2022/01/17 05:13:05;;;;;;;29.35;3.90;;;;;;;5.21;100.00;101852.34;5004551;28;20039;-79
2022/01/17 05:15:37;;;;;;;30.42;3.70;;;;;;;5.14;100.00;101842.34;4990451;28;20508;-77
2022/01/17 05:20:41;;;;;;;29.30;4.15;;;;;;;5.31;100.00;101857.03;4983758;28;20042;-77
2022/01/17 05:23:07;;;;;;;35.00;3.63;;;;;;;5.31;100.00;101863.06;4993588;28;20042;-78
2022/01/17 05:25:34;;;;;;;34.78;4.18;;;;;;;5.37;100.00;101839.34;4989103;28;20026;-77
2022/01/17 05:27:59;;;;;;;30.73;3.90;;;;;;;5.41;100.00;101855.63;4991032;28;20030;-78
2022/01/17 05:30:25;;;;;;;27.75;3.40;;;;;;;5.45;100.00;101868.34;4989262;28;20034;-78
2022/01/17 05:32:53;;;;;;;27.25;3.80;;;;;;;5.42;100.00;101855.50;4979694;28;20109;-78
2022/01/17 05:35:19;;;;;;;35.55;4.55;;;;;;;5.45;100.00;101851.91;4974425;28;20030;-77
2022/01/17 05:37:46;;;;;;;34.75;4.35;;;;;;;5.59;100.00;101864.97;4972107;28;20029;-78
2022/01/17 05:40:13;;;;;;;21.48;4.20;;;;;;;5.55;100.00;101873.88;4986119;28;20038;-79
2022/01/17 05:42:40;;;;;;;31.25;3.63;;;;;;;5.61;100.00;101876.16;4967571;28;20026;-77
2022/01/17 05:45:07;;;;;;;37.88;4.13;;;;;;;5.60;100.00;101874.47;4998300;28;20042;-78
2022/01/17 05:47:33;;;;;;;37.90;4.30;;;;;;;5.64;100.00;101870.75;5006014;28;20121;-78
2022/01/17 05:50:01;;;;;;;41.53;4.25;;;;;;;5.56;100.00;101890.34;4970764;28;20165;-77
2022/01/17 05:52:27;;;;;;;28.55;3.50;;;;;;;5.55;100.00;101867.84;4986876;28;20063;-78
2022/01/17 05:54:53;;;;;;;28.25;4.50;;;;;;;5.54;100.00;101847.94;4986597;28;20065;-77
2022/01/17 05:57:19;;;;;;;38.13;4.38;;;;;;;5.64;100.00;101847.34;5006844;28;20038;-78
2022/01/17 05:59:44;;;;;;;38.22;4.90;;;;;;;5.61;100.00;101813.69;4967525;28;20093;-78
2022/01/17 06:02:10;;;;;;;28.23;3.85;;;;;;;5.65;100.00;101828.19;4987357;28;20030;-78
2022/01/17 06:04:36;;;;;;;29.83;3.97;;;;;;;5.76;100.00;101832.75;4982044;28;20053;-79
2022/01/17 06:07:05;;;;;;;36.92;4.47;;;;;;;5.67;100.00;101807.28;5001416;28;20447;-78
2022/01/17 06:09:31;;;;;;;43.00;5.03;;;;;;;5.64;100.00;101843.91;4974027;28;20036;-78
2022/01/17 06:11:57;;;;;;;39.22;4.47;;;;;;;5.61;100.00;101868.34;4958848;28;20035;-77
2022/01/17 06:14:23;;;;;;;35.78;4.88;;;;;;;5.64;100.00;101870.75;4978780;28;20088;-78
2022/01/17 06:16:49;;;;;;;30.63;4.25;;;;;;;5.62;100.00;101872.63;4965354;28;20495;-77
2022/01/17 06:19:16;;;;;;;32.95;3.95;;;;;;;5.63;100.00;101843.06;4982755;28;20572;-77
2022/01/17 06:21:42;;;;;;;34.97;4.75;;;;;;;5.65;100.00;101864.66;4960812;28;20512;-78
2022/01/17 06:24:09;;;;;;;52.30;5.03;;;;;;;5.66;100.00;101860.25;4972640;28;20061;-78
2022/01/17 06:26:39;;;;;;;40.45;5.07;;;;;;;5.63;100.00;101837.00;4968387;28;20041;-78
2022/01/17 06:29:07;;;;;;;39.05;4.80;;;;;;;5.78;100.00;101843.97;4971706;28;20038;-77
2022/01/17 06:31:34;;;;;;;33.25;5.43;;;;;;;5.72;100.00;101815.66;4986826;28;20042;-78
2022/01/17 06:34:00;;;;;;;41.35;5.03;;;;;;;5.77;100.00;101837.06;4988142;28;20144;-78
2022/01/17 06:36:26;;;;;;;38.80;4.50;;;;;;;5.71;100.00;101832.22;4973350;28;20105;-78
2022/01/17 06:38:51;;;;;;;39.30;4.97;;;;;;;5.65;100.00;101829.94;4954372;28;20034;-80
2022/01/17 06:41:18;;;;;;;38.08;4.38;;;;;;;5.60;100.00;101843.22;4984050;28;20038;-77
2022/01/17 06:43:45;;;;;;;45.30;5.07;;;;;;;5.54;100.00;101853.13;4986754;28;20058;-78
2022/01/17 06:46:11;;;;;;;43.90;5.18;;;;;;;5.54;100.00;101867.00;4983337;28;20030;-78
2022/01/17 06:48:37;;;;;;;37.95;4.78;;;;;;;5.62;100.00;101890.00;4984178;28;20042;-77
2022/01/17 06:51:03;;;;;;;42.97;5.90;;;;;;;5.56;100.00;101893.78;4985440;28;20045;-77
2022/01/17 06:53:29;;;;;;;40.67;5.32;;;;;;;5.61;100.00;101901.31;4955515;28;20046;-78
2022/01/17 06:55:55;;;;;;;39.83;5.20;;;;;;;5.62;100.00;101901.25;4983759;28;20630;-78
2022/01/17 06:58:22;;;;;;;41.20;5.10;;;;;;;5.62;100.00;101900.41;4973240;28;20130;-77
2022/01/17 07:00:49;;;;;;;30.52;4.75;;;;;;;5.62;100.00;101913.44;4956393;28;20040;-79
2022/01/17 07:03:15;;;;;;;45.75;6.45;;;;;;;5.62;100.00;101919.47;4988871;28;20060;-77
2022/01/17 07:05:41;;;;;;;37.05;5.28;;;;;;;5.65;100.00;101928.84;4967045;28;20490;-78
2022/01/17 07:08:07;;;;;;;31.73;4.53;;;;;;;5.71;100.00;101910.31;5000388;28;20034;-77
2022/01/17 07:10:33;;;;;;;43.13;5.43;;;;;;;5.67;100.00;101921.84;4986978;28;20057;-78
2022/01/17 07:12:58;;;;;;;49.30;5.70;;;;;;;5.68;100.00;101896.63;4985167;28;20568;-77
2022/01/17 07:15:24;;;;;;;45.85;6.38;;;;;;;5.65;100.00;101872.44;4987174;28;20034;-77
2022/01/17 07:17:50;;;;;;;53.03;6.10;;;;;;;5.66;100.00;101858.50;4988861;28;20715;-76
2022/01/17 07:20:15;;;;;;;45.05;5.90;;;;;;;5.65;100.00;101866.38;4983835;28;20041;-76
2022/01/17 07:22:41;;;;;;;49.92;5.70;;;;;;;5.62;100.00;101857.00;4984613;28;20034;-77
2022/01/17 07:25:07;;;;;;;41.42;6.20;;;;;;;5.69;100.00;101843.63;4955915;28;20125;-77
2022/01/17 07:27:34;;;;;;;52.60;6.15;;;;;;;5.66;100.00;101857.66;4975091;28;20126;-78
2022/01/17 07:30:00;;;;;;;44.63;5.53;;;;;;;5.76;100.00;101857.97;4988928;28;20737;-78
2022/01/17 07:32:26;;;;;;;46.25;6.15;;;;;;;5.69;100.00;101834.06;4973457;28;20041;-77
2022/01/17 07:34:52;;;;;;;44.53;5.18;;;;;;;5.72;100.00;101865.13;4968815;28;20027;-77
2022/01/17 07:37:19;;;;;;;39.00;5.35;;;;;;;5.65;100.00;101876.78;4972376;28;20457;-78
2022/01/17 07:39:44;;;;;;;45.33;5.40;;;;;;;5.62;100.00;101867.41;4975186;28;20415;-78
2022/01/17 07:42:10;;;;;;;51.42;5.85;;;;;;;5.65;100.00;101853.38;4966375;28;20117;-78
2022/01/17 07:44:39;;;;;;;52.08;6.55;;;;;;;5.62;100.00;101869.19;5004539;28;20037;-77
2022/01/17 07:47:06;;;;;;;49.20;5.72;;;;;;;5.64;100.00;101886.38;4973774;28;20041;-78
2022/01/17 07:49:33;;;;;;;48.13;6.10;;;;;;;5.69;100.00;101898.28;4979897;28;20034;-78
2022/01/17 07:52:02;;;;;;;48.03;5.63;;;;;;;5.79;100.00;101891.66;4985408;28;20034;-77
2022/01/17 07:54:30;;;;;;;57.53;6.15;;;;;;;5.69;100.00;101867.06;4986114;28;20034;-77
2022/01/17 07:56:57;;;;;;;40.05;5.55;;;;;;;5.75;100.00;101890.16;4989850;28;20031;-78
2022/01/17 07:59:23;;;;;;;53.88;5.72;;;;;;;5.81;100.00;101872.41;4994144;28;20053;-78
2022/01/17 08:01:49;;;;;;;45.08;5.70;;;;;;;5.85;100.00;101886.09;4963635;28;20129;-77
2022/01/17 08:04:15;;;;;;;54.70;5.65;;;;;;;5.82;100.00;101886.25;4971206;28;20490;-77
2022/01/17 08:06:41;;;;;;;42.72;5.00;;;;;;;5.80;100.00;101894.19;4960515;28;20494;-77
2022/01/17 08:09:11;;;;;;;43.13;5.05;;;;;;;5.79;100.00;101900.28;5002108;28;20035;-77
2022/01/17 08:11:37;;;;;;;40.25;5.03;;;;;;;5.87;100.00;101918.09;4955796;28;20034;-79
2022/01/17 08:14:03;;;;;;;40.72;5.00;;;;;;;5.91;100.00;101887.50;4993031;28;20109;-78
2022/01/17 08:16:29;;;;;;;38.30;5.13;;;;;;;5.94;100.00;101914.22;4973338;28;20799;-78
2022/01/17 08:18:54;;;;;;;52.42;5.50;;;;;;;5.84;100.00;101923.50;4991837;28;20041;-78
2022/01/17 08:21:20;;;;;;;43.42;5.22;;;;;;;5.89;100.00;101942.28;4989464;28;20117;-77
2022/01/17 08:23:46;;;;;;;43.20;5.03;;;;;;;5.92;100.00;101928.25;4972683;28;20034;-78
2022/01/17 08:26:11;;;;;;;40.03;4.82;;;;;;;5.88;100.00;101925.00;4964995;28;20469;-78
2022/01/17 08:28:37;;;;;;;43.80;5.00;;;;;;;5.99;100.00;101927.00;4991036;28;20034;-79
2022/01/17 08:31:03;;;;;;;46.42;5.05;;;;;;;6.02;100.00;101925.06;4988862;28;20414;-79
2022/01/17 08:33:29;;;;;;;49.33;6.70;;;;;;;5.98;100.00;101920.94;4994630;28;20788;-79
2022/01/17 08:35:54;;;;;;;47.03;6.00;;;;;;;6.06;100.00;101917.06;5005807;28;20034;-80
2022/01/17 08:38:20;;;;;;;55.95;6.57;;;;;;;6.07;100.00;101918.75;5007068;28;20559;-80
2022/01/17 08:40:46;;;;;;;53.20;6.20;;;;;;;6.10;100.00;101926.38;4985381;28;20033;-80
2022/01/17 08:43:12;;;;;;;39.45;5.32;;;;;;;6.13;100.00;101934.84;5005586;28;20035;-79
2022/01/17 08:45:38;;;;;;;43.63;5.43;;;;;;;6.15;100.00;101938.22;4968019;28;20771;-79
2022/01/17 08:48:04;;;;;;;51.80;6.95;;;;;;;6.14;100.00;101904.44;4979970;28;20050;-80
2022/01/17 08:50:30;;;;;;;53.40;6.20;;;;;;;6.28;100.00;101942.72;4971140;28;20103;-80
2022/01/17 08:52:56;;;;;;;59.30;7.35;;;;;;;6.29;100.00;101963.50;4977312;28;20510;-81
2022/01/17 08:55:22;;;;;;;51.47;6.75;;;;;;;6.35;100.00;101944.06;4990994;28;20070;-82
2022/01/17 08:57:48;;;;;;;46.90;5.40;;;;;;;6.36;100.00;101956.97;4991560;28;20038;-80
2022/01/17 09:00:16;;;;;;;49.00;6.65;;;;;;;6.27;100.00;101967.94;4988472;28;20042;-80
2022/01/17 09:02:43;;;;;;;44.67;5.13;;;;;;;6.30;100.00;101975.56;4956379;28;20097;-80
2022/01/17 09:05:09;;;;;;;51.35;5.03;;;;;;;6.25;100.00;101972.38;4968447;28;20042;-81
2022/01/17 09:07:35;;;;;;;39.13;5.20;;;;;;;6.21;100.00;101971.72;5001646;28;20033;-80
2022/01/17 09:10:00;;;;;;;40.03;5.07;;;;;;;6.25;100.00;101964.56;4986985;28;20565;-78
2022/01/17 09:12:26;;;;;;;43.92;5.38;;;;;;;6.26;100.00;101955.00;4989531;28;20026;-80
2022/01/17 09:14:52;;;;;;;44.92;6.03;;;;;;;6.35;100.00;101965.75;4962933;28;20034;-80
2022/01/17 09:17:18;;;;;;;42.83;5.75;;;;;;;6.34;100.00;101979.69;4985336;28;20117;-79
2022/01/17 09:19:46;;;;;;;48.53;6.65;;;;;;;6.39;100.00;101985.47;4973391;28;20062;-79
2022/01/17 09:22:11;;;;;;;46.97;6.25;;;;;;;6.49;100.00;101995.38;4990411;28;20030;-79
2022/01/17 09:24:38;;;;;;;56.88;6.65;;;;;;;6.47;100.00;102008.47;5000234;28;20034;-79
2022/01/17 09:27:06;;;;;;;57.40;6.95;;;;;;;6.43;100.00;102026.06;4989343;28;20042;-79
2022/01/17 09:29:32;;;;;;;60.33;6.82;;;;;;;6.33;100.00;102050.13;4969841;28;20046;-78
2022/01/17 09:31:58;;;;;;;54.05;6.38;;;;;;;6.31;100.00;102045.03;4971973;28;20513;-80
2022/01/17 09:34:24;;;;;;;48.35;6.82;;;;;;;6.26;100.00;102049.66;4985252;28;20066;-80
2022/01/17 09:36:50;;;;;;;44.45;6.68;;;;;;;6.30;100.00;102058.13;4990357;28;20038;-79
2022/01/17 09:39:16;;;;;;;53.03;6.65;;;;;;;6.30;100.00;102060.75;4999126;28;20034;-80
2022/01/17 09:41:42;;;;;;;48.97;6.18;;;;;;;6.41;100.00;102056.59;4997960;28;20112;-79
2022/01/17 09:44:11;;;;;;;46.33;6.28;;;;;;;6.28;100.00;102063.44;4976899;28;20051;-79
2022/01/17 09:46:42;;;;;;;44.42;7.03;;;;;;;6.29;100.00;102057.31;4978137;28;20537;-79
2022/01/17 09:49:21;;;;;;;45.17;5.47;;;;;;;6.30;100.00;102065.94;4965833;28;20031;-78
2022/01/17 09:54:29;;;;;;;41.00;5.57;;;;;;;6.22;100.00;102095.03;5005735;28;20514;-79
2022/01/17 09:56:57;;;;;;;43.77;4.97;;;;;;;6.20;100.00;102113.38;4990971;28;20038;-78
2022/01/17 09:59:24;;;;;;;38.25;4.50;;;;;;;6.21;100.00;102115.03;4990604;28;20599;-80
2022/01/17 10:01:50;;;;;;;18.83;2.97;;;;;;;6.20;100.00;102112.53;4990891;28;20435;-79
2022/01/17 10:04:19;;;;;;;25.63;3.08;;;;;;;6.21;100.00;102115.03;4989346;28;20042;-78
2022/01/17 10:06:56;;;;;;;29.40;4.28;;;;;;;6.18;100.00;102110.00;4977851;28;20053;-78
2022/01/17 10:09:24;;;;;;;25.95;3.55;;;;;;;6.16;100.00;102134.44;4977710;28;20045;-79
2022/01/17 10:12:10;;;;;;;17.85;2.25;;;;;;;6.11;100.00;102129.50;4958916;28;20120;-79
2022/01/17 10:14:39;;;;;;;16.13;2.25;;;;;;;6.11;100.00;102139.91;4988513;28;20030;-78
2022/01/17 10:17:09;;;;;;;19.45;2.70;;;;;;;6.06;100.00;102143.69;4990328;28;20034;-79
2022/01/17 10:19:36;;;;;;;14.43;2.65;;;;;;;5.99;100.00;102138.81;4965254;28;20060;-79
2022/01/17 10:22:08;;;;;;;28.10;2.60;;;;;;;5.93;100.00;102152.13;4985912;28;20065;-78
2022/01/17 10:24:46;;;;;;;16.27;2.38;;;;;;;5.98;100.00;102151.91;4971172;28;20120;-78
2022/01/17 10:27:27;;;;;;;15.70;2.10;;;;;;;6.09;100.00;102139.16;4976647;28;20037;-80
2022/01/17 10:35:24;;;;;;;20.95;2.72;;;;;;;6.38;100.00;102145.38;5007190;28;20143;-79
2022/01/17 10:38:09;;;;;;;31.85;3.13;;;;;;;6.54;100.00;102152.34;4988589;28;20042;-80
2022/01/17 10:40:58;;;;;;;21.25;2.95;;;;;;;6.68;100.00;102168.06;4999128;28;20074;-80
2022/01/17 10:43:35;;;;;;;21.20;2.97;;;;;;;6.62;100.00;102179.66;4982712;28;20030;-80
2022/01/17 10:46:09;;;;;;;22.45;3.10;;;;;;;6.52;100.00;102172.47;4956740;28;20137;-79
2022/01/17 10:48:39;;;;;;;15.30;2.70;;;;;;;6.42;100.00;102191.22;4985009;28;20085;-79
2022/01/17 10:51:08;;;;;;;19.60;3.08;;;;;;;6.40;100.00;102195.66;5001837;28;20034;-78
2022/01/17 10:53:36;;;;;;;20.88;3.10;;;;;;;6.29;100.00;102213.66;4953278;28;20030;-78
2022/01/17 10:56:07;;;;;;;22.20;3.13;;;;;;;6.27;100.00;102219.84;4985067;28;20027;-79
2022/01/17 10:58:38;;;;;;;28.27;3.08;;;;;;;6.26;100.00;102226.00;4982696;28;20030;-80
2022/01/17 11:01:11;;;;;;;22.63;3.05;;;;;;;6.20;100.00;102221.97;4986043;28;20094;-80
2022/01/17 11:03:39;;;;;;;23.63;3.10;;;;;;;6.30;100.00;102215.31;4989953;28;20041;-78
2022/01/17 11:06:09;;;;;;;21.77;3.30;;;;;;;6.28;100.00;102225.00;4971763;28;20418;-80
2022/01/17 11:08:38;;;;;;;19.48;2.78;;;;;;;6.29;100.00;102218.00;4953756;28;20044;-79
2022/01/17 11:11:07;;;;;;;18.77;2.88;;;;;;;5.93;100.00;102245.88;4981500;28;20615;-80
2022/01/17 11:13:36;;;;;;;17.13;2.95;;;;;;;5.55;100.00;102269.50;4955574;28;20037;-80
2022/01/17 11:16:07;;;;;;;20.52;3.60;;;;;;;5.35;100.00;102282.66;4966587;28;20034;-80
2022/01/17 11:18:35;;;;;;;23.05;3.05;;;;;;;5.05;100.00;102267.63;4987824;28;20576;-80
2022/01/17 11:21:10;;;;;;;15.60;2.13;;;;;;;4.88;100.00;102274.47;4988892;28;20038;-80
2022/01/17 11:23:37;;;;;;;18.30;2.28;;;;;;;4.82;100.00;102299.88;4968945;28;20046;-80
2022/01/17 11:26:05;;;;;;;27.40;3.08;;;;;;;4.77;100.00;102291.47;4970020;28;20035;-80
2022/01/17 11:28:36;;;;;;;27.85;3.42;;;;;;;4.60;100.00;102277.50;4957923;28;20049;-78
2022/01/17 11:31:08;;;;;;;25.73;3.78;;;;;;;4.59;100.00;102281.00;4998637;28;20118;-82
2022/01/17 11:33:35;;;;;;;23.33;3.58;;;;;;;4.59;100.00;102287.94;5003894;28;20034;-82
2022/01/17 11:36:01;;;;;;;25.95;3.30;;;;;;;4.57;100.00;102275.03;4990787;28;20042;-81
2022/01/17 11:38:44;;;;;;;18.30;2.80;;;;;;;4.71;100.00;102289.16;4985055;28;20038;-81
2022/01/17 11:41:23;;;;;;;20.48;2.85;;;;;;;4.85;100.00;102276.34;4974103;28;20045;-79
2022/01/17 11:44:06;;;;;;;19.15;3.00;;;;;;;5.03;100.00;102304.09;4984323;28;20037;-81